Time;durP1;ratioP1;P1;durP2;ratioP2;P2;SDS_P1;SDS_P2;PMS_P1;PMS_P2;Temp;Humidity;BMP_temperature;BMP_pressure;BME280_temperature;BME280_humidity;BME280_pressure;Samples;Min_cycle;Max_cycle;Signal;HPM_P1;HPM_P2
2023/11/14 00:03:37;;;;;;;7.88;4.88;;;10.90;99.90;;;11.24;100.00;97188.94;10443476;28;20321;-65
2023/11/14 00:08:41;;;;;;;10.77;4.10;;;10.80;99.90;;;11.22;100.00;97204.22;10450154;28;20221;-64
2023/11/14 00:13:45;;;;;;;8.32;4.60;;;10.80;99.90;;;11.28;100.00;97207.03;10443437;28;20233;-64
2023/11/14 00:18:51;;;;;;;5.60;4.00;;;10.80;99.90;;;11.18;100.00;97221.91;10439336;28;20708;-65
2023/11/14 00:23:54;;;;;;;10.90;3.17;;;10.80;99.90;;;11.15;100.00;97230.31;10441632;28;20611;-66
2023/11/14 00:28:58;;;;;;;9.55;3.08;;;10.70;99.90;;;11.08;100.00;97243.66;10442127;28;20713;-65
2023/11/14 00:34:03;;;;;;;9.68;3.70;;;10.60;99.90;;;11.09;100.00;97253.06;10438054;28;20229;-65
2023/11/14 00:39:07;;;;;;;11.48;3.90;;;10.60;99.90;;;11.07;100.00;97261.47;10443813;28;20241;-66
2023/11/14 00:44:10;;;;;;;11.77;3.75;;;10.60;99.90;;;11.10;100.00;97253.94;10440563;28;20233;-65
2023/11/14 00:49:15;;;;;;;11.73;4.22;;;10.60;99.90;;;11.12;100.00;97271.13;10444554;28;20595;-66
2023/11/14 00:54:18;;;;;;;10.38;3.63;;;10.50;99.90;;;11.03;100.00;97252.81;10442834;28;20243;-65
2023/11/14 00:59:21;;;;;;;8.40;3.50;;;10.50;99.90;;;10.94;100.00;97265.19;10443327;28;20243;-65
2023/11/14 01:04:26;;;;;;;8.25;3.45;;;10.40;99.90;;;10.81;100.00;97269.69;10440786;28;20319;-66
2023/11/14 01:09:30;;;;;;;13.13;3.50;;;10.40;99.90;;;10.76;100.00;97270.31;10440667;28;20220;-65
2023/11/14 01:14:33;;;;;;;10.50;3.60;;;10.30;99.90;;;10.78;100.00;97274.66;10441801;28;20712;-65
2023/11/14 01:19:41;;;;;;;10.82;3.83;;;10.20;99.90;;;10.68;100.00;97262.28;10440596;28;20638;-65
2023/11/14 01:24:44;;;;;;;8.05;3.05;;;10.20;99.90;;;10.56;100.00;97270.25;10441258;28;20221;-65
2023/11/14 01:29:49;;;;;;;11.77;3.83;;;10.00;99.90;;;10.48;100.00;97274.13;10441014;28;20314;-66
2023/11/14 01:34:53;;;;;;;8.23;3.30;;;10.00;99.90;;;10.41;100.00;97271.19;10442237;28;20221;-65
2023/11/14 01:39:57;;;;;;;12.43;3.45;;;9.90;99.90;;;10.32;100.00;97290.38;10442589;28;20260;-65
2023/11/14 01:45:00;;;;;;;11.02;3.90;;;9.80;99.90;;;10.20;100.00;97301.66;10443397;28;20230;-65
2023/11/14 01:50:07;;;;;;;8.32;2.90;;;9.70;99.90;;;10.13;100.00;97298.78;10441466;28;20691;-64
2023/11/14 01:55:10;;;;;;;13.07;3.53;;;9.60;99.90;;;10.15;100.00;97298.84;10442130;28;20232;-65
2023/11/14 02:00:15;;;;;;;8.32;2.85;;;9.60;99.90;;;10.11;100.00;97317.41;10438631;28;20224;-66
2023/11/14 02:05:20;;;;;;;11.35;3.65;;;9.60;99.90;;;10.12;100.00;97294.47;10440852;28;20772;-64
2023/11/14 02:10:23;;;;;;;9.32;3.42;;;9.60;99.90;;;9.98;100.00;97315.00;10439046;28;20229;-65
2023/11/14 02:15:27;;;;;;;9.18;2.78;;;9.50;99.90;;;9.90;100.00;97302.75;10438219;28;20696;-64
2023/11/14 02:20:31;;;;;;;9.15;3.58;;;9.40;99.90;;;9.87;100.00;97279.63;10443090;28;20341;-65
2023/11/14 02:25:36;;;;;;;11.35;3.40;;;9.40;99.90;;;9.78;100.00;97303.78;10449228;28;20228;-65
2023/11/14 02:30:39;;;;;;;9.35;3.28;;;9.30;99.90;;;9.92;100.00;97290.06;10443506;28;20233;-65
2023/11/14 02:35:43;;;;;;;5.80;3.03;;;9.50;99.90;;;10.02;100.00;97296.50;10450081;28;20604;-65
2023/11/14 02:40:49;;;;;;;12.48;3.83;;;9.50;99.90;;;9.87;100.00;97307.72;10445944;28;20515;-64
2023/11/14 02:45:52;;;;;;;7.72;3.17;;;9.50;99.90;;;9.77;100.00;97310.59;10449493;28;21073;-64
2023/11/14 02:50:57;;;;;;;6.65;3.15;;;9.30;99.90;;;9.80;100.00;97302.22;10448347;28;20228;-65
2023/11/14 02:56:01;;;;;;;7.10;3.20;;;9.30;99.90;;;9.72;100.00;97304.34;10448057;28;20301;-64
2023/11/14 03:01:05;;;;;;;11.63;3.08;;;9.30;99.90;;;9.75;100.00;97286.66;10445394;28;20630;-65
2023/11/14 03:06:09;;;;;;;12.35;3.65;;;9.30;99.90;;;9.74;100.00;97273.81;10445843;28;20320;-65
2023/11/14 03:11:13;;;;;;;7.13;2.90;;;9.30;99.90;;;9.72;100.00;97275.41;10449121;28;20232;-66
2023/11/14 03:16:17;;;;;;;10.20;3.30;;;9.30;99.90;;;9.63;100.00;97284.34;10441435;28;20237;-65
2023/11/14 03:21:20;;;;;;;8.43;3.45;;;9.20;99.90;;;9.64;100.00;97300.53;10444920;28;20248;-67
2023/11/14 03:26:32;;;;;;;11.25;3.30;;;9.20;99.90;;;9.60;100.00;97303.75;10444966;28;20230;-66
2023/11/14 03:31:35;;;;;;;10.27;3.30;;;9.20;99.90;;;9.57;100.00;97326.53;10441806;28;20256;-65
2023/11/14 03:36:38;;;;;;;6.65;3.00;;;9.10;99.90;;;9.58;100.00;97324.06;10449967;28;20228;-66
2023/11/14 03:41:43;;;;;;;6.68;3.05;;;9.20;99.90;;;9.58;100.00;97324.06;10443940;28;20590;-66
2023/11/14 03:46:46;;;;;;;10.68;3.55;;;9.10;99.90;;;9.57;100.00;97326.53;10448634;28;20217;-64
2023/11/14 03:51:49;;;;;;;8.77;3.97;;;9.10;99.90;;;9.54;100.00;97349.34;10445633;28;20326;-65
2023/11/14 03:56:54;;;;;;;10.65;3.70;;;9.10;99.90;;;9.62;100.00;97355.72;10450930;28;20754;-65
2023/11/14 04:01:57;;;;;;;10.43;3.72;;;9.20;99.90;;;9.60;100.00;97363.28;10446907;28;20308;-64
2023/11/14 04:07:00;;;;;;;9.05;3.47;;;9.20;99.90;;;9.61;100.00;97370.13;10444494;28;20712;-66
2023/11/14 04:12:05;;;;;;;6.32;2.83;;;9.20;99.90;;;9.68;100.00;97367.13;10448295;28;20225;-65
2023/11/14 04:17:09;;;;;;;8.95;3.67;;;9.20;99.90;;;9.69;100.00;97373.09;10443984;28;20227;-64
2023/11/14 04:22:12;;;;;;;9.75;3.60;;;9.30;99.90;;;9.69;100.00;97353.56;10444825;28;20225;-65
2023/11/14 04:27:17;;;;;;;7.80;3.85;;;9.20;99.90;;;9.64;100.00;97347.38;10448770;28;20217;-65
2023/11/14 04:32:20;;;;;;;11.07;4.00;;;9.20;99.90;;;9.57;100.00;97367.38;10446302;28;20752;-65
2023/11/14 04:37:24;;;;;;;5.85;3.08;;;9.10;99.90;;;9.57;100.00;97362.25;10444368;28;20275;-64
2023/11/14 04:42:28;;;;;;;6.20;3.70;;;9.10;99.90;;;9.54;100.00;97367.19;10447143;28;20229;-64
2023/11/14 04:47:31;;;;;;;7.68;3.50;;;9.00;99.90;;;9.48;100.00;97372.84;10443585;28;20740;-63
2023/11/14 04:52:36;;;;;;;10.32;4.07;;;9.00;99.90;;;9.45;100.00;97376.13;10442688;28;20310;-63
2023/11/14 04:57:41;;;;;;;7.05;3.90;;;9.00;99.90;;;9.45;100.00;97378.66;10439185;28;20337;-65
2023/11/14 05:02:44;;;;;;;7.28;3.90;;;8.90;99.90;;;9.36;100.00;97387.50;10441214;28;20239;-65
2023/11/14 05:07:48;;;;;;;9.32;3.85;;;8.80;99.90;;;9.32;100.00;97381.34;10443089;28;20236;-66
2023/11/14 05:12:52;;;;;;;9.48;4.03;;;8.80;99.90;;;9.26;100.00;97386.13;10440642;28;20622;-66
2023/11/14 05:17:56;;;;;;;10.82;4.03;;;8.70;99.90;;;9.16;100.00;97399.19;10442081;28;20235;-64
2023/11/14 05:23:00;;;;;;;7.78;3.60;;;8.70;99.90;;;9.17;100.00;97421.31;10442302;28;20746;-65
2023/11/14 05:28:06;;;;;;;6.88;3.80;;;8.70;99.90;;;9.20;100.00;97408.75;10440011;28;20221;-65
2023/11/14 05:33:09;;;;;;;10.80;4.68;;;8.70;99.90;;;9.20;100.00;97411.28;10441362;28;20233;-65
2023/11/14 05:38:12;;;;;;;6.45;4.22;;;8.60;99.90;;;9.10;100.00;97407.38;10441863;28;20225;-64
2023/11/14 05:43:18;;;;;;;7.85;3.92;;;8.60;99.90;;;9.11;100.00;97400.59;10440402;28;20337;-63
2023/11/14 05:48:21;;;;;;;11.38;4.50;;;8.60;99.90;;;9.13;100.00;97407.53;10437378;28;20229;-65
2023/11/14 05:53:24;;;;;;;10.13;4.25;;;8.60;99.90;;;9.17;100.00;97417.09;10442323;28;20252;-65
2023/11/14 05:58:29;;;;;;;8.13;4.07;;;8.70;99.90;;;9.23;100.00;97411.44;10440578;28;20307;-64
2023/11/14 06:03:32;;;;;;;8.00;3.97;;;8.60;99.90;;;9.12;100.00;97418.50;10441717;28;20615;-64
2023/11/14 06:08:35;;;;;;;9.95;4.85;;;8.60;99.90;;;9.15;100.00;97417.81;10442717;28;20307;-64
2023/11/14 06:13:40;;;;;;;7.45;4.22;;;8.60;99.90;;;9.05;100.00;97418.97;10440583;28;20229;-64
2023/11/14 06:18:44;;;;;;;8.65;4.50;;;8.50;99.90;;;8.91;100.00;97427.53;10439107;28;20311;-65
2023/11/14 06:23:47;;;;;;;7.32;3.97;;;8.40;99.90;;;8.80;100.00;97437.09;10440438;28;20229;-66
2023/11/14 06:28:51;;;;;;;10.13;4.65;;;8.30;99.90;;;8.86;100.00;97428.91;10435968;28;20224;-65
2023/11/14 06:33:55;;;;;;;8.48;4.38;;;8.30;99.90;;;8.93;100.00;97429.38;10435706;28;20224;-64
2023/11/14 06:38:58;;;;;;;7.93;4.40;;;8.40;99.90;;;8.97;100.00;97438.94;10460977;22;20275;-64
2023/11/14 06:44:02;;;;;;;5.90;4.18;;;8.40;99.90;;;9.03;100.00;97446.91;10441881;28;20229;-63
2023/11/14 06:49:06;;;;;;;8.60;4.25;;;8.50;99.90;;;9.10;100.00;97455.81;10444317;28;20315;-64
2023/11/14 06:54:09;;;;;;;7.38;4.53;;;8.50;99.90;;;9.09;100.00;97448.06;10442805;28;20233;-65
2023/11/14 06:59:13;;;;;;;7.25;4.80;;;8.50;99.90;;;9.06;100.00;97473.38;10440270;28;20229;-64
2023/11/14 07:04:18;;;;;;;9.20;5.10;;;8.50;99.90;;;9.08;100.00;97469.25;10437934;28;20233;-64
2023/11/14 07:09:25;;;;;;;10.60;5.13;;;8.50;99.90;;;9.15;100.00;97479.88;10443049;28;20704;-66
2023/11/14 07:14:30;;;;;;;8.50;5.00;;;8.60;99.90;;;9.10;100.00;97488.94;10447464;28;20359;-65
2023/11/14 07:19:34;;;;;;;11.40;5.57;;;8.60;99.90;;;9.13;100.00;97506.06;10448164;28;20237;-65
2023/11/14 07:24:37;;;;;;;8.15;4.57;;;8.70;99.90;;;9.22;100.00;97517.69;10444251;28;20330;-65
2023/11/14 07:29:42;;;;;;;6.13;4.68;;;8.70;99.90;;;9.32;100.00;97528.38;10442381;28;20237;-66
2023/11/14 07:34:45;;;;;;;7.78;4.80;;;8.80;99.90;;;9.44;100.00;97536.72;10446642;28;20232;-65
2023/11/14 07:39:48;;;;;;;7.45;4.22;;;8.90;99.90;;;9.47;100.00;97530.16;10446269;28;20231;-65
2023/11/14 07:44:53;;;;;;;10.73;4.78;;;8.90;99.90;;;9.66;100.00;97503.06;10440441;28;20229;-65
2023/11/14 07:49:56;;;;;;;9.10;6.00;;;9.10;99.90;;;9.81;100.00;97491.13;10444632;28;20233;-64
2023/11/14 07:55:02;;;;;;;13.63;6.80;;;9.20;99.90;;;9.81;100.00;97509.00;10443890;28;20228;-65
2023/11/14 08:00:11;;;;;;;9.15;5.82;;;9.20;99.90;;;9.84;100.00;97501.53;10440145;28;20232;-65
2023/11/14 08:05:16;;;;;;;3.42;2.70;;;9.20;99.90;;;10.25;100.00;97522.41;10447015;28;20315;-64
2023/11/14 08:10:20;;;;;;;6.80;3.13;;;9.60;99.90;;;10.46;100.00;97517.56;10440848;28;20323;-64
2023/11/14 08:15:25;;;;;;;11.98;8.95;;;10.10;99.90;;;10.63;100.00;97528.66;10437285;28;20244;-64
2023/11/14 08:20:28;;;;;;;10.23;5.90;;;10.20;99.90;;;10.74;100.00;97533.53;10446818;28;20232;-64
2023/11/14 08:25:32;;;;;;;4.63;2.95;;;10.30;99.90;;;10.97;100.00;97536.38;10442927;28;20228;-64
2023/11/14 08:30:36;;;;;;;5.13;3.60;;;10.50;99.90;;;10.97;100.00;97569.59;10438372;28;20668;-64
2023/11/14 08:35:39;;;;;;;9.10;5.60;;;10.50;99.90;;;11.04;100.00;97563.97;10440599;28;20233;-64
2023/11/14 08:40:42;;;;;;;6.07;3.42;;;10.60;99.90;;;11.10;100.00;97571.97;10442463;28;20450;-65
2023/11/14 08:45:48;;;;;;;7.57;5.78;;;10.60;99.90;;;11.14;100.00;97568.78;10440290;28;20229;-65
2023/11/14 08:50:51;;;;;;;3.55;3.25;;;10.70;99.90;;;11.18;100.00;97563.00;10441797;28;20295;-64
2023/11/14 08:55:57;;;;;;;3.35;2.50;;;10.70;99.90;;;11.19;100.00;97551.09;10442944;28;20236;-65
2023/11/14 09:01:02;;;;;;;5.68;2.65;;;10.90;99.90;;;11.09;100.00;97554.00;10439868;28;20221;-65
2023/11/14 09:06:06;;;;;;;2.33;1.90;;;10.90;99.90;;;11.12;100.00;97529.44;10443024;28;20225;-64
2023/11/14 09:11:10;;;;;;;3.70;1.73;;;10.90;99.90;;;11.15;100.00;97523.59;10440650;28;20231;-66
2023/11/14 09:16:15;;;;;;;4.53;2.50;;;10.90;99.90;;;11.19;100.00;97528.97;10441491;28;20319;-65
2023/11/14 09:21:18;;;;;;;2.65;2.13;;;11.00;99.90;;;11.38;100.00;97542.63;10440065;28;20666;-65
2023/11/14 09:26:23;;;;;;;3.35;1.70;;;11.10;99.90;;;11.33;99.57;97545.00;10442195;28;20233;-64
2023/11/14 09:31:28;;;;;;;3.10;2.50;;;11.10;99.90;;;11.38;100.00;97534.97;10438911;28;20699;-65
2023/11/14 09:36:31;;;;;;;6.25;5.75;;;11.20;99.90;;;11.32;98.53;97516.75;10443703;28;20247;-65
2023/11/14 09:41:34;;;;;;;27.48;24.75;;;11.10;99.90;;;11.36;99.72;97510.97;10443938;28;20221;-64
2023/11/14 09:46:40;;;;;;;10.98;10.05;;;11.10;99.90;;;11.37;95.94;97538.34;10439390;28;20286;-65
2023/11/14 09:51:46;;;;;;;3.92;3.50;;;11.10;99.90;;;11.42;100.00;97534.31;10437609;28;20229;-64
2023/11/14 09:56:50;;;;;;;3.72;2.65;;;11.20;99.90;;;11.37;94.88;97551.13;10437298;28;20304;-65
2023/11/14 10:01:55;;;;;;;2.63;2.15;;;11.00;99.90;;;11.42;100.00;97552.22;10436446;28;20723;-65
2023/11/14 10:06:58;;;;;;;7.22;6.63;;;11.00;99.90;;;11.41;100.00;97535.09;10440243;28;20332;-65
2023/11/14 10:12:02;;;;;;;6.78;6.30;;;11.00;99.90;;;11.48;98.97;97549.97;10436966;28;20225;-64
2023/11/14 10:17:29;;;;;;;8.35;5.45;;;10.90;99.90;;;11.42;98.61;97544.56;10437950;28;20220;-64
2023/11/14 10:22:34;;;;;;;7.80;7.00;;;10.80;99.90;;;11.41;98.25;97547.91;10439980;28;20229;-64
2023/11/14 10:27:37;;;;;;;5.95;5.00;;;10.80;99.90;;;11.33;99.02;97536.41;10439313;28;20306;-64
2023/11/14 10:32:55;;;;;;;24.25;21.73;;;10.80;99.90;;;11.38;100.00;97542.63;10439731;28;20232;-65
2023/11/14 10:38:19;;;;;;;34.00;30.30;;;10.80;99.90;;;11.46;97.79;97521.72;10441739;28;20298;-64
2023/11/14 10:43:29;;;;;;;3.90;2.58;;;10.90;99.90;;;11.39;99.79;97531.59;10442370;28;20220;-64
2023/11/14 10:48:34;;;;;;;2.65;2.05;;;10.80;99.90;;;11.61;92.37;97516.44;10443381;28;20399;-64
2023/11/14 10:53:38;;;;;;;4.25;1.80;;;11.00;99.90;;;11.78;92.05;97516.38;10443966;28;20941;-64
2023/11/14 10:58:42;;;;;;;4.43;2.40;;;11.20;99.90;;;11.78;91.23;97501.00;10449201;28;20231;-64
2023/11/14 11:03:46;;;;;;;2.42;1.60;;;11.20;99.90;;;11.89;90.14;97504.97;10444834;28;20807;-64
2023/11/14 11:08:50;;;;;;;2.40;2.20;;;11.30;99.90;;;11.84;90.69;97511.53;10446879;28;20248;-65
2023/11/14 11:13:53;;;;;;;5.20;3.38;;;11.30;99.90;;;11.95;94.86;97479.66;10443186;28;20237;-64
2023/11/14 11:18:58;;;;;;;3.75;2.50;;;11.30;99.90;;;12.03;93.11;97482.56;10445900;28;20225;-65
2023/11/14 11:24:12;;;;;;;2.15;1.98;;;11.30;99.90;;;12.04;90.02;97485.19;10444822;28;20233;-64
2023/11/14 11:29:50;;;;;;;2.97;2.78;;;11.40;99.90;;;11.92;92.99;97448.78;10444114;28;20225;-65
2023/11/14 11:35:27;;;;;;;2.30;2.10;;;11.20;99.90;;;11.87;94.64;97450.25;10443768;28;20235;-65
2023/11/14 11:40:32;;;;;;;3.97;1.98;;;11.20;99.90;;;11.97;97.32;97418.25;10434269;28;20232;-64
2023/11/14 11:45:40;;;;;;;5.55;2.22;;;11.20;99.90;;;12.30;86.15;97388.97;10434783;28;20448;-65
2023/11/14 11:50:46;;;;;;;3.25;1.92;;;11.70;99.90;;;12.50;83.37;97340.22;10442420;28;20228;-66
2023/11/14 11:55:50;;;;;;;5.53;2.42;;;11.80;99.90;;;12.65;81.16;97347.66;10441422;28;20237;-64
2023/11/14 12:01:08;;;;;;;3.33;1.85;;;12.20;99.90;;;12.59;81.56;97349.19;10441738;28;20228;-64
2023/11/14 12:06:15;;;;;;;4.78;2.00;;;12.00;99.90;;;12.50;81.63;97342.78;10453651;28;20711;-65
2023/11/14 12:11:19;;;;;;;3.47;1.83;;;11.90;99.90;;;12.56;83.80;97343.94;10440747;28;20224;-65
2023/11/14 12:16:22;;;;;;;3.75;2.40;;;11.90;99.90;;;12.38;83.95;97368.78;10440599;28;20251;-65
2023/11/14 12:21:27;;;;;;;3.78;2.03;;;11.80;99.90;;;12.30;81.51;97339.41;10441321;28;20229;-64
2023/11/14 12:26:32;;;;;;;3.55;2.00;;;11.70;99.90;;;12.53;81.04;97336.13;10444002;28;20227;-65
2023/11/14 12:31:35;;;;;;;13.95;8.93;;;11.90;99.90;;;12.37;86.00;97318.34;10442814;28;20245;-64
2023/11/14 12:36:40;;;;;;;7.80;5.80;;;11.80;99.90;;;12.37;83.95;97285.03;10442287;28;20251;-64
2023/11/14 12:41:45;;;;;;;18.45;11.48;;;11.80;99.90;;;12.33;84.83;97302.00;10442811;28;21734;-65
2023/11/14 12:46:54;;;;;;;6.53;4.45;;;11.70;99.90;;;12.29;85.05;97312.03;10439073;28;20225;-65
2023/11/14 12:52:01;;;;;;;7.38;5.75;;;11.60;99.90;;;12.41;83.26;97307.41;10440706;28;20584;-65
2023/11/14 12:57:05;;;;;;;6.43;4.25;;;11.70;99.90;;;12.39;83.58;97288.56;10443070;28;20702;-64
2023/11/14 13:02:11;;;;;;;3.20;2.08;;;11.70;99.90;;;12.50;80.44;97282.13;10439461;28;20221;-65
2023/11/14 13:07:16;;;;;;;5.85;4.32;;;11.80;99.90;;;12.40;83.87;97310.78;10440218;28;20229;-64
2023/11/14 13:12:19;;;;;;;9.50;6.80;;;11.70;99.90;;;12.25;84.27;97293.09;10441882;28;20227;-64
2023/11/14 13:17:27;;;;;;;7.78;7.00;;;11.60;99.90;;;12.21;84.44;97285.22;10439270;28;20228;-63
2023/11/14 13:22:32;;;;;;;5.45;4.75;;;11.50;99.90;;;12.17;86.46;97259.47;10437920;28;20312;-64
2023/11/14 13:27:38;;;;;;;5.00;3.92;;;11.40;99.90;;;12.26;82.66;97246.16;10438361;28;20229;-65
2023/11/14 13:32:41;;;;;;;5.90;4.75;;;11.50;99.90;;;12.25;84.57;97264.91;10436725;28;20225;-64
2023/11/14 13:37:46;;;;;;;8.30;6.15;;;11.40;99.90;;;12.38;80.08;97263.72;10441942;28;20225;-65
2023/11/14 13:42:49;;;;;;;7.18;4.05;;;11.80;99.90;;;12.29;81.42;97253.09;10441400;28;20304;-64
2023/11/14 13:47:52;;;;;;;15.32;11.40;;;11.60;99.90;;;12.30;80.97;97236.91;10439614;28;20815;-65
2023/11/14 13:52:57;;;;;;;5.13;2.88;;;11.60;99.90;;;12.38;79.36;97235.53;10438442;28;20247;-65
2023/11/14 13:58:00;;;;;;;4.63;3.10;;;11.60;99.90;;;12.35;79.70;97232.84;10442583;28;20302;-65
2023/11/14 14:03:05;;;;;;;6.65;3.15;;;11.70;99.90;;;12.20;78.92;97234.81;10437717;28;20224;-66
2023/11/14 14:08:10;;;;;;;5.78;3.45;;;11.70;99.90;;;12.17;79.69;97235.53;10438756;28;20239;-64
2023/11/14 14:13:14;;;;;;;7.60;3.70;;;11.60;99.90;;;12.20;79.15;97239.91;10438624;28;20265;-65
2023/11/14 14:18:20;;;;;;;7.70;6.03;;;11.70;99.90;;;12.08;78.53;97251.41;10447754;28;20242;-65
2023/11/14 14:23:25;;;;;;;4.47;3.03;;;11.70;99.90;;;12.04;80.15;97244.41;10451870;28;20256;-65
2023/11/14 14:28:29;;;;;;;4.20;2.35;;;11.70;99.90;;;12.08;79.47;97264.22;10451875;28;20237;-65
2023/11/14 14:33:33;;;;;;;3.67;2.25;;;11.60;99.90;;;12.13;78.43;97243.91;10451296;28;20225;-66
2023/11/14 14:38:37;;;;;;;17.17;8.55;;;11.70;99.90;;;12.10;79.11;97218.16;10450504;28;20235;-66
2023/11/14 14:43:41;;;;;;;6.50;3.67;;;11.60;99.90;;;12.04;79.90;97202.56;10449760;28;20315;-65
2023/11/14 14:48:44;;;;;;;4.35;3.45;;;11.50;99.90;;;12.07;79.83;97208.66;10451985;28;20225;-65
2023/11/14 14:53:49;;;;;;;5.05;2.10;;;11.70;99.90;;;11.95;80.76;97203.06;10453997;28;20217;-65
2023/11/14 14:58:52;;;;;;;5.13;2.22;;;11.70;99.90;;;11.90;81.32;97209.66;10450743;28;20615;-66
2023/11/14 15:03:55;;;;;;;4.03;2.67;;;11.50;99.90;;;11.89;82.20;97213.03;10451144;28;20224;-65
2023/11/14 15:09:01;;;;;;;6.45;3.50;;;11.50;99.90;;;11.84;82.42;97210.25;10447231;28;20831;-65
2023/11/14 15:14:05;;;;;;;4.07;2.25;;;11.50;99.90;;;11.72;83.40;97199.50;10447359;28;20225;-64
2023/11/14 15:19:08;;;;;;;3.90;2.85;;;11.40;99.90;;;11.71;82.37;97208.00;10446835;28;20240;-65
2023/11/14 15:24:13;;;;;;;4.22;3.65;;;11.40;99.90;;;11.64;82.58;97217.09;10448040;28;20260;-65
2023/11/14 15:29:17;;;;;;;4.35;2.60;;;11.40;99.90;;;11.60;82.86;97217.78;10445815;28;20251;-64
2023/11/14 15:34:22;;;;;;;5.22;3.00;;;11.30;99.90;;;11.59;83.17;97205.81;10442745;28;20701;-64
2023/11/14 15:39:26;;;;;;;2.80;2.60;;;11.20;99.90;;;11.63;83.37;97197.44;10441841;28;20322;-65
2023/11/14 15:44:29;;;;;;;7.03;2.40;;;11.30;99.90;;;11.58;84.39;97186.13;10440108;28;20225;-65
2023/11/14 15:49:33;;;;;;;1.98;1.88;;;11.20;99.90;;;11.52;86.61;97175.63;10442803;28;20723;-65
2023/11/14 15:54:38;;;;;;;2.17;1.83;;;11.10;99.90;;;11.43;86.77;97170.13;10443017;28;20225;-65
2023/11/14 15:59:41;;;;;;;3.00;2.55;;;10.90;99.90;;;11.31;86.03;97156.84;10438221;28;20236;-65
2023/11/14 16:04:45;;;;;;;1.80;1.70;;;10.90;99.90;;;11.20;86.57;97141.00;10437500;28;22120;-64
2023/11/14 16:09:49;;;;;;;8.38;7.03;;;10.90;99.90;;;11.18;86.80;97148.59;10443997;28;20260;-65
2023/11/14 16:14:52;;;;;;;3.60;2.70;;;10.90;99.90;;;11.16;86.35;97160.47;10435858;28;21495;-65
2023/11/14 16:19:56;;;;;;;8.05;6.70;;;10.70;99.90;;;11.26;85.31;97147.25;10442041;28;20704;-65
2023/11/14 16:25:01;;;;;;;2.13;2.00;;;10.80;99.90;;;11.19;85.20;97127.34;10445306;28;20375;-66
2023/11/14 16:30:06;;;;;;;2.83;2.10;;;10.70;99.90;;;11.23;86.46;97121.56;10441680;28;20236;-65
2023/11/14 16:35:09;;;;;;;1.98;1.88;;;10.60;99.90;;;11.17;86.70;97100.84;10428859;28;20712;-65
2023/11/14 16:40:14;;;;;;;5.55;5.05;;;10.50;99.90;;;10.94;90.11;97101.53;10434894;28;20679;-65
2023/11/14 16:45:18;;;;;;;2.05;1.95;;;10.40;99.90;;;10.73;93.06;97117.69;10438264;28;20712;-64
2023/11/14 16:50:21;;;;;;;2.83;2.40;;;10.30;99.90;;;10.89;92.89;97118.34;10436591;28;20227;-65
2023/11/14 16:55:25;;;;;;;2.47;2.28;;;10.20;99.90;;;10.74;92.11;97118.56;10438299;28;20231;-65
2023/11/14 17:00:29;;;;;;;3.45;3.15;;;10.20;99.90;;;10.47;96.34;97120.75;10438180;28;20332;-64
2023/11/14 17:05:32;;;;;;;2.95;2.60;;;10.00;99.90;;;10.34;99.46;97126.97;10436115;28;20233;-65
2023/11/14 17:10:36;;;;;;;2.30;2.10;;;9.90;99.90;;;10.34;100.00;97107.41;10434346;28;20232;-62
2023/11/14 17:15:40;;;;;;;3.17;2.83;;;9.80;99.90;;;10.29;100.00;97097.78;10435083;28;20241;-64
2023/11/14 17:20:43;;;;;;;3.95;2.70;;;9.80;99.90;;;10.17;100.00;97098.06;10438992;28;20236;-63
2023/11/14 17:25:49;;;;;;;3.03;2.83;;;9.70;99.90;;;10.06;100.00;97099.25;10435488;28;20224;-62
2023/11/14 17:30:52;;;;;;;3.67;2.65;;;9.60;99.90;;;9.93;100.00;97087.63;10432827;28;20233;-63
2023/11/14 17:35:55;;;;;;;3.70;3.40;;;9.50;99.90;;;9.77;100.00;97090.25;10438316;28;20229;-65
2023/11/14 17:41:00;;;;;;;4.93;4.50;;;9.40;99.90;;;9.59;100.00;97070.69;10441772;28;20228;-63
2023/11/14 17:46:04;;;;;;;7.10;6.40;;;9.30;99.90;;;9.54;100.00;97056.84;10439925;28;20221;-64
2023/11/14 17:51:07;;;;;;;6.47;5.88;;;9.20;99.90;;;9.48;100.00;97051.47;10441729;28;20300;-64
2023/11/14 17:56:16;;;;;;;6.53;5.88;;;9.10;99.90;;;9.42;100.00;97057.13;10443402;28;20231;-63
2023/11/14 18:01:20;;;;;;;7.75;6.30;;;9.10;99.90;;;9.39;100.00;97059.53;10439232;28;20221;-62
2023/11/14 18:06:24;;;;;;;5.35;4.85;;;9.00;99.90;;;9.37;100.00;97053.47;10439862;28;20298;-64
2023/11/14 18:11:28;;;;;;;7.70;6.28;;;9.00;99.90;;;9.43;100.00;97058.88;10451350;28;20228;-62
2023/11/14 18:16:34;;;;;;;7.30;6.28;;;9.00;99.90;;;9.46;100.00;97056.47;10434376;28;20297;-63
2023/11/14 18:21:37;;;;;;;5.05;4.75;;;9.10;99.90;;;9.39;100.00;97062.09;10434569;28;20707;-62
2023/11/14 18:26:42;;;;;;;5.88;4.65;;;9.00;99.90;;;9.32;100.00;97052.38;10437223;28;20233;-62
2023/11/14 18:31:47;;;;;;;5.07;4.05;;;8.90;99.90;;;9.16;100.00;97048.22;10436523;28;20225;-62
2023/11/14 18:36:51;;;;;;;2.70;2.45;;;8.90;99.90;;;9.08;100.00;97034.22;10433967;28;20799;-62
2023/11/14 18:41:55;;;;;;;4.10;3.78;;;8.80;99.90;;;9.07;100.00;97044.31;10436429;28;20232;-63
2023/11/14 18:47:04;;;;;;;4.40;3.95;;;8.70;99.90;;;9.23;100.00;97029.84;10432089;28;20263;-62
2023/11/14 18:52:10;;;;;;;10.68;9.20;;;8.80;99.90;;;9.26;100.00;97013.84;10433907;28;20257;-63
2023/11/14 18:57:14;;;;;;;13.30;10.45;;;8.90;99.90;;;9.31;100.00;97012.38;10435046;28;20236;-63
2023/11/14 19:02:17;;;;;;;13.13;11.82;;;8.90;99.90;;;9.24;100.00;97017.97;10433542;28;20236;-62
2023/11/14 19:07:23;;;;;;;9.95;8.95;;;8.90;99.90;;;9.26;100.00;97016.38;10437823;28;20821;-62
2023/11/14 19:12:31;;;;;;;11.13;9.88;;;8.80;99.90;;;9.24;100.00;97016.31;10440955;28;20323;-63
2023/11/14 19:17:35;;;;;;;8.93;8.02;;;8.90;99.90;;;9.25;100.00;97001.91;10439624;28;20739;-62
2023/11/14 19:22:39;;;;;;;5.72;5.28;;;8.90;99.90;;;9.28;100.00;97017.34;10440817;28;20232;-63
2023/11/14 19:28:03;;;;;;;121.38;73.47;;;8.90;99.90;;;9.38;100.00;97016.09;10435556;28;20638;-63
2023/11/14 19:33:07;;;;;;;64.60;41.20;;;9.00;99.90;;;9.42;100.00;97005.25;10444584;28;20229;-63
2023/11/14 19:38:10;;;;;;;117.82;71.70;;;9.00;99.90;;;9.44;100.00;97032.59;10440784;28;20231;-63
2023/11/14 19:43:15;;;;;;;16.02;12.38;;;9.00;99.90;;;9.41;100.00;97019.69;10440557;28;20314;-62
2023/11/14 19:48:18;;;;;;;6.30;5.70;;;9.00;99.90;;;9.53;100.00;97013.38;10441515;28;20831;-63
2023/11/14 19:53:22;;;;;;;8.63;7.97;;;9.10;99.90;;;9.79;100.00;97022.28;10436722;28;20726;-62
2023/11/14 19:58:26;;;;;;;6.63;6.03;;;9.40;99.90;;;9.97;100.00;97032.47;10439202;28;20614;-63
2023/11/14 20:03:29;;;;;;;6.47;5.97;;;9.50;99.90;;;10.15;100.00;97052.03;10440902;28;20233;-64
2023/11/14 20:08:33;;;;;;;5.07;4.78;;;9.70;99.90;;;10.21;100.00;97048.00;10440264;28;20560;-65
2023/11/14 20:13:42;;;;;;;5.15;4.85;;;9.70;99.90;;;10.28;100.00;97050.97;10434386;28;20978;-62
2023/11/14 20:18:45;;;;;;;5.55;5.15;;;9.80;99.90;;;10.32;100.00;97057.06;10437577;28;20225;-62
2023/11/14 20:23:49;;;;;;;4.00;3.70;;;9.90;99.90;;;10.21;100.00;97068.44;10433650;28;20263;-64
2023/11/14 20:28:53;;;;;;;3.88;3.67;;;9.80;99.90;;;10.33;100.00;97077.59;10438469;28;20275;-63
2023/11/14 20:33:57;;;;;;;3.30;3.10;;;9.80;99.90;;;10.31;100.00;97079.19;10441435;28;20225;-61
2023/11/14 20:39:00;;;;;;;3.90;3.50;;;9.90;99.90;;;10.26;100.00;97072.09;10439772;28;20239;-64
2023/11/14 20:44:05;;;;;;;3.35;3.15;;;9.90;99.90;;;10.36;100.00;97081.97;10437892;28;20233;-66
2023/11/14 20:49:08;;;;;;;4.22;3.72;;;9.90;99.90;;;10.45;100.00;97077.25;10439742;28;20228;-64
2023/11/14 20:54:12;;;;;;;3.08;2.88;;;10.00;99.90;;;10.52;100.00;97096.28;10438556;28;20583;-65
2023/11/14 20:59:17;;;;;;;3.33;3.03;;;10.00;99.90;;;10.49;100.00;97106.38;10436039;28;20253;-65
2023/11/14 21:04:20;;;;;;;3.50;3.30;;;10.00;99.90;;;10.43;100.00;97121.41;10436218;28;20225;-65
2023/11/14 21:09:23;;;;;;;3.60;3.40;;;9.90;99.90;;;10.45;100.00;97124.94;10438684;28;20233;-64